createdAt,value
2019-01-25T00:00:12.366Z,2.50
2019-01-25T00:02:44.154Z,2.50
2019-01-25T00:05:15.948Z,2.50
2019-01-25T00:07:47.875Z,2.60
2019-01-25T00:10:19.726Z,2.60
2019-01-25T00:12:51.530Z,2.60
2019-01-25T00:15:23.306Z,2.60
2019-01-25T00:17:55.107Z,2.70
2019-01-25T00:20:26.889Z,2.70
2019-01-25T00:22:58.680Z,2.70
2019-01-25T00:25:30.449Z,2.70
2019-01-25T00:28:02.258Z,2.70
2019-01-25T00:30:34.091Z,2.80
2019-01-25T00:33:06.048Z,2.80
2019-01-25T00:35:37.947Z,2.80
2019-01-25T00:38:09.743Z,2.90
2019-01-25T00:40:42.054Z,2.90
2019-01-25T00:43:13.975Z,2.90
2019-01-25T00:45:45.753Z,2.90
2019-01-25T00:48:17.641Z,2.90
2019-01-25T00:50:49.436Z,2.90
2019-01-25T00:53:21.239Z,2.90
2019-01-25T00:55:53.024Z,2.90
2019-01-25T00:58:24.855Z,2.90
2019-01-25T01:00:56.654Z,2.90
2019-01-25T01:03:28.469Z,2.90
2019-01-25T01:06:00.290Z,2.90
2019-01-25T01:08:32.102Z,2.90
2019-01-25T01:11:03.975Z,2.90
2019-01-25T01:13:35.819Z,2.90
2019-01-25T01:16:07.576Z,2.90
2019-01-25T01:18:39.388Z,2.90
2019-01-25T01:21:11.186Z,2.80
2019-01-25T01:23:42.992Z,2.80
2019-01-25T01:26:14.796Z,2.80
2019-01-25T01:28:46.610Z,2.80
2019-01-25T01:31:18.404Z,2.80
2019-01-25T01:33:50.212Z,2.80
2019-01-25T01:36:22.024Z,2.70
2019-01-25T01:38:53.807Z,2.70
2019-01-25T01:41:25.602Z,2.70
2019-01-25T01:43:57.484Z,2.70
2019-01-25T01:46:29.284Z,2.70
2019-01-25T01:49:01.093Z,2.70
2019-01-25T01:51:32.911Z,2.70
2019-01-25T01:54:04.736Z,2.70
2019-01-25T01:56:36.521Z,2.70
2019-01-25T01:59:08.407Z,2.70
2019-01-25T02:01:40.234Z,2.80
2019-01-25T02:04:12.056Z,2.80
2019-01-25T02:06:43.832Z,2.80
2019-01-25T02:09:15.663Z,2.80
2019-01-25T02:11:47.561Z,2.80
2019-01-25T02:14:19.361Z,2.80
2019-01-25T02:16:51.231Z,2.80
2019-01-25T02:19:23.042Z,2.80
2019-01-25T02:21:54.923Z,2.80
2019-01-25T02:24:26.745Z,2.80
2019-01-25T02:26:58.519Z,2.80
2019-01-25T02:29:30.313Z,2.80
2019-01-25T02:32:02.114Z,2.80
2019-01-25T02:34:33.992Z,2.80
2019-01-25T02:37:05.856Z,2.80
2019-01-25T02:39:37.688Z,2.80
2019-01-25T02:42:09.446Z,2.80
2019-01-25T02:44:41.294Z,2.70
2019-01-25T02:47:13.097Z,2.60
2019-01-25T02:49:44.914Z,2.60
2019-01-25T02:52:16.709Z,2.60
2019-01-25T02:54:48.524Z,2.60
2019-01-25T02:57:20.302Z,2.60
2019-01-25T02:59:52.094Z,2.60
2019-01-25T03:02:23.974Z,2.70
2019-01-25T03:04:55.784Z,2.60
2019-01-25T03:07:27.599Z,2.60
2019-01-25T03:09:59.440Z,2.60
2019-01-25T03:12:31.300Z,2.60
2019-01-25T03:15:24.815Z,2.60
2019-01-25T03:18:12.947Z,2.60
2019-01-25T03:20:44.769Z,2.60
2019-01-25T03:23:16.566Z,2.60
2019-01-25T03:25:48.349Z,2.60
2019-01-25T03:28:20.153Z,2.60
2019-01-25T03:30:51.947Z,2.50
2019-01-25T03:33:23.772Z,2.60
2019-01-25T03:35:55.552Z,2.50
2019-01-25T03:38:27.395Z,2.50
2019-01-25T03:40:59.262Z,2.50
2019-01-25T03:43:31.088Z,2.50
2019-01-25T03:46:02.903Z,2.50
2019-01-25T03:48:34.747Z,2.50
2019-01-25T03:51:06.566Z,2.50
2019-01-25T03:53:38.358Z,2.50
2019-01-25T03:56:10.191Z,2.50
2019-01-25T03:58:42.057Z,2.50
2019-01-25T04:01:13.942Z,2.50
2019-01-25T04:03:45.775Z,2.50
2019-01-25T04:06:17.563Z,2.50
2019-01-25T04:08:49.441Z,2.50
2019-01-25T04:11:21.229Z,2.50
2019-01-25T04:13:53.039Z,2.60
2019-01-25T04:16:24.837Z,2.50
2019-01-25T04:18:56.629Z,2.50
2019-01-25T04:21:28.934Z,2.50
2019-01-25T04:24:00.761Z,2.60
2019-01-25T04:26:32.658Z,2.50
2019-01-25T04:29:04.536Z,2.50
2019-01-25T04:31:36.345Z,2.50
2019-01-25T04:34:08.145Z,2.50
2019-01-25T04:36:39.920Z,2.50
2019-01-25T04:39:11.815Z,2.50
2019-01-25T04:41:43.615Z,2.50
2019-01-25T04:44:16.256Z,2.60
2019-01-25T04:46:48.056Z,2.60
2019-01-25T04:49:19.988Z,2.50
2019-01-25T04:51:51.878Z,2.60
2019-01-25T04:54:23.687Z,2.60
2019-01-25T04:56:55.476Z,2.50
2019-01-25T04:59:30.605Z,2.60
2019-01-25T05:02:02.498Z,2.60
2019-01-25T05:04:36.607Z,2.60
2019-01-25T05:07:08.444Z,2.60
2019-01-25T05:09:40.894Z,2.60
2019-01-25T05:12:12.568Z,2.60
2019-01-25T05:14:44.247Z,2.60
2019-01-25T05:17:15.918Z,2.50
2019-01-25T05:19:47.632Z,2.60
2019-01-25T05:22:19.310Z,2.50
2019-01-25T05:24:50.993Z,2.50
2019-01-25T05:27:22.849Z,2.50
2019-01-25T05:29:57.764Z,2.50
2019-01-25T05:32:29.563Z,2.50
2019-01-25T05:35:01.237Z,2.50
2019-01-25T05:37:32.926Z,2.50
2019-01-25T05:40:07.118Z,2.50
2019-01-25T05:42:38.849Z,2.40
2019-01-25T05:45:12.375Z,2.40
2019-01-25T05:47:44.130Z,2.40
2019-01-25T05:50:15.950Z,2.40
2019-01-25T05:52:47.631Z,2.50
2019-01-25T05:55:20.721Z,2.50
2019-01-25T05:57:59.972Z,2.50
2019-01-25T06:00:35.060Z,2.50
2019-01-25T06:03:09.131Z,2.50
2019-01-25T06:05:40.930Z,2.60
2019-01-25T06:08:34.111Z,2.60
2019-01-25T06:11:12.837Z,2.60
2019-01-25T06:13:45.620Z,2.60
2019-01-25T06:16:17.450Z,2.70
2019-01-25T06:18:49.136Z,2.70
2019-01-25T06:21:20.831Z,2.70
2019-01-25T06:23:54.698Z,2.70
2019-01-25T06:26:26.378Z,2.70
2019-01-25T06:28:58.038Z,2.70
2019-01-25T06:31:48.816Z,2.70
2019-01-25T06:34:20.514Z,2.70
2019-01-25T06:36:52.230Z,2.60
2019-01-25T06:39:23.922Z,2.70
2019-01-25T06:41:55.708Z,2.70
2019-01-25T06:44:27.404Z,2.70
2019-01-25T06:46:59.098Z,2.70
2019-01-25T06:49:30.776Z,2.70
2019-01-25T06:52:02.487Z,2.70
2019-01-25T06:54:34.213Z,2.70
2019-01-25T06:57:17.025Z,2.80
2019-01-25T06:59:48.754Z,2.80
2019-01-25T07:02:27.027Z,2.80
2019-01-25T07:04:58.975Z,2.80
2019-01-25T07:07:36.329Z,2.80
2019-01-25T07:10:15.249Z,2.80
2019-01-25T07:12:47.066Z,2.80
2019-01-25T07:15:23.650Z,2.80
2019-01-25T07:17:55.740Z,2.80
2019-01-25T07:20:27.491Z,2.80
2019-01-25T07:22:59.166Z,2.80
2019-01-25T07:25:30.871Z,2.70
2019-01-25T07:28:02.621Z,2.70
2019-01-25T07:30:34.454Z,2.80
2019-01-25T07:33:06.228Z,2.70
2019-01-25T07:35:40.537Z,2.80
2019-01-25T07:38:12.474Z,2.80
2019-01-25T07:40:47.301Z,2.80
2019-01-25T07:43:20.058Z,2.80
2019-01-25T07:45:51.886Z,2.80
2019-01-25T07:48:23.699Z,2.80
2019-01-25T07:50:55.808Z,2.90
2019-01-25T07:53:27.905Z,2.90
2019-01-25T07:55:59.757Z,2.90
2019-01-25T07:58:31.544Z,3.00
2019-01-25T08:01:03.380Z,3.00
2019-01-25T08:03:35.122Z,3.00
2019-01-25T08:06:06.909Z,3.10
2019-01-25T08:08:38.678Z,3.20
2019-01-25T08:11:10.413Z,3.20
2019-01-25T08:13:42.215Z,3.30
2019-01-25T08:16:14.333Z,3.30
2019-01-25T08:18:46.165Z,3.40
2019-01-25T08:21:17.946Z,3.40
2019-01-25T08:23:49.648Z,3.50
2019-01-25T08:26:21.705Z,3.50
2019-01-25T08:28:53.538Z,3.50
2019-01-25T08:31:25.233Z,3.50
2019-01-25T08:33:57.024Z,3.50
2019-01-25T08:36:28.691Z,3.50
2019-01-25T08:39:00.499Z,3.50
2019-01-25T08:41:32.616Z,3.60
2019-01-25T08:44:04.422Z,3.60
2019-01-25T08:46:38.900Z,3.60
2019-01-25T08:49:10.717Z,3.60
2019-01-25T08:51:42.780Z,3.60
2019-01-25T08:54:14.614Z,3.60
2019-01-25T08:56:46.369Z,3.60
2019-01-25T08:59:18.384Z,3.70
2019-01-25T09:01:50.722Z,3.70
2019-01-25T09:04:22.416Z,3.80
2019-01-25T09:06:54.223Z,3.80
2019-01-25T09:09:25.963Z,3.80
2019-01-25T09:12:00.282Z,3.90
2019-01-25T09:14:32.068Z,4.00
2019-01-25T09:17:03.811Z,4.10
2019-01-25T09:19:35.547Z,4.10
2019-01-25T09:22:07.399Z,4.20
2019-01-25T09:24:39.264Z,4.30
2019-01-25T09:27:11.073Z,4.30
2019-01-25T09:29:43.041Z,4.30
2019-01-25T09:32:15.090Z,4.30
2019-01-25T09:34:46.798Z,4.30
2019-01-25T09:37:18.508Z,4.30
2019-01-25T09:39:50.213Z,4.30
2019-01-25T09:42:21.951Z,4.40
2019-01-25T09:44:53.772Z,4.50
2019-01-25T09:47:25.567Z,4.50
2019-01-25T09:49:57.338Z,4.50
2019-01-25T09:52:30.333Z,4.40
2019-01-25T09:55:02.145Z,4.40
2019-01-25T09:57:33.923Z,4.40
2019-01-25T10:00:10.353Z,4.40
2019-01-25T10:02:42.006Z,4.50
2019-01-25T10:05:13.834Z,4.50
2019-01-25T10:07:45.540Z,4.60
2019-01-25T10:10:17.307Z,4.60
2019-01-25T10:12:49.278Z,4.70
2019-01-25T10:15:40.236Z,4.80
2019-01-25T10:18:12.028Z,4.90
2019-01-25T10:20:43.864Z,5.00
2019-01-25T10:23:15.660Z,5.10
2019-01-25T10:25:47.482Z,5.20
2019-01-25T10:28:20.094Z,5.20
2019-01-25T10:30:51.955Z,5.20
2019-01-25T10:33:24.881Z,5.20
2019-01-25T10:35:57.049Z,5.20
2019-01-25T10:38:28.851Z,5.20
2019-01-25T10:41:00.534Z,5.20
2019-01-25T10:43:32.266Z,5.20
2019-01-25T10:46:04.011Z,5.30
2019-01-25T10:48:35.695Z,5.40
2019-01-25T10:51:07.497Z,5.40
2019-01-25T10:53:39.220Z,5.60
2019-01-25T10:56:10.945Z,5.60
2019-01-25T10:58:42.684Z,5.70
2019-01-25T11:01:14.425Z,5.70
2019-01-25T11:03:46.780Z,5.70
2019-01-25T11:06:18.683Z,5.70
2019-01-25T11:08:50.393Z,5.70
2019-01-25T11:11:22.126Z,5.80
2019-01-25T11:13:54.149Z,5.90
2019-01-25T11:16:25.883Z,5.90
2019-01-25T11:18:57.695Z,6.00
2019-01-25T11:21:29.543Z,6.20
2019-01-25T11:24:01.390Z,6.20
2019-01-25T11:26:33.562Z,6.20
2019-01-25T11:29:05.688Z,6.20
2019-01-25T11:31:38.271Z,6.10
2019-01-25T11:34:10.082Z,6.10
2019-01-25T11:36:41.910Z,6.10
2019-01-25T11:39:13.779Z,6.10
2019-01-25T11:41:45.576Z,6.10
2019-01-25T11:44:17.502Z,6.20
2019-01-25T11:46:49.312Z,6.20
2019-01-25T11:49:21.105Z,6.10
2019-01-25T11:51:53.063Z,6.00
2019-01-25T11:54:24.770Z,6.00
2019-01-25T11:56:56.592Z,5.90
2019-01-25T11:59:28.480Z,6.00
2019-01-25T12:02:00.200Z,6.00
2019-01-25T12:04:32.101Z,6.00
2019-01-25T12:07:03.938Z,6.00
2019-01-25T12:09:35.774Z,6.00
2019-01-25T12:12:07.490Z,6.00
2019-01-25T12:14:39.306Z,6.00
2019-01-25T12:17:11.102Z,6.00
2019-01-25T12:19:43.629Z,6.10
2019-01-25T12:22:15.444Z,6.10
2019-01-25T12:24:49.659Z,6.20
2019-01-25T12:27:21.439Z,6.20
2019-01-25T12:29:54.916Z,6.20
2019-01-25T12:32:26.654Z,6.10
2019-01-25T12:34:58.520Z,6.20
2019-01-25T12:37:30.268Z,6.20
2019-01-25T12:40:02.009Z,6.20
2019-01-25T12:42:33.817Z,6.10
2019-01-25T12:45:06.525Z,6.10
2019-01-25T12:47:38.889Z,6.00
2019-01-25T12:50:19.551Z,5.90
2019-01-25T12:52:51.458Z,5.90
2019-01-25T12:55:24.007Z,5.80
2019-01-25T12:57:55.816Z,5.80
2019-01-25T13:00:29.138Z,5.80
2019-01-25T13:03:00.890Z,5.70
2019-01-25T13:05:33.465Z,5.70
2019-01-25T13:08:05.224Z,5.70
2019-01-25T13:10:37.393Z,5.70
2019-01-25T13:13:09.261Z,5.60
2019-01-25T13:15:41.132Z,5.60
2019-01-25T13:18:12.835Z,5.60
2019-01-25T13:20:44.688Z,5.50
2019-01-25T13:23:16.478Z,5.40
2019-01-25T13:25:48.314Z,5.30
2019-01-25T13:28:20.024Z,5.30
2019-01-25T13:30:51.827Z,5.20
2019-01-25T13:33:23.706Z,5.20
2019-01-25T13:35:55.354Z,5.10
2019-01-25T13:38:27.043Z,5.10
2019-01-25T13:40:59.641Z,5.00
2019-01-25T13:43:38.963Z,5.10
2019-01-25T13:46:06.173Z,5.10
2019-01-25T13:48:37.948Z,5.00
2019-01-25T13:51:09.722Z,5.00
2019-01-25T13:53:41.434Z,5.00
2019-01-25T13:56:13.280Z,5.00
2019-01-25T13:58:45.017Z,5.00
2019-01-25T14:01:16.787Z,5.00
2019-01-25T14:03:51.033Z,5.00
2019-01-25T14:06:23.569Z,5.00
2019-01-25T14:08:55.279Z,5.10
2019-01-25T14:11:27.011Z,5.10
2019-01-25T14:13:58.773Z,5.00
2019-01-25T14:16:30.456Z,5.10
2019-01-25T14:19:02.187Z,5.10
2019-01-25T14:21:35.600Z,5.20
2019-01-25T14:24:08.786Z,5.20
2019-01-25T14:26:40.781Z,5.20
2019-01-25T14:29:15.715Z,5.20
2019-01-25T14:31:48.413Z,5.10
2019-01-25T14:34:22.221Z,5.20
2019-01-25T14:36:54.294Z,5.20
2019-01-25T14:39:25.995Z,5.20
2019-01-25T14:41:57.796Z,5.20
2019-01-25T14:44:29.651Z,5.20
2019-01-25T14:47:01.363Z,5.20
2019-01-25T14:49:33.333Z,5.30
2019-01-25T14:52:05.355Z,5.30
2019-01-25T14:54:37.044Z,5.20
2019-01-25T14:57:08.713Z,5.20
2019-01-25T14:59:40.509Z,5.20
2019-01-25T15:02:12.179Z,5.10
2019-01-25T15:04:43.901Z,5.10
2019-01-25T15:07:15.864Z,5.00
2019-01-25T15:09:48.026Z,5.00
2019-01-25T15:12:19.733Z,5.00
2019-01-25T15:14:51.557Z,5.00
2019-01-25T15:17:23.411Z,5.00
2019-01-25T15:19:55.184Z,4.90
2019-01-25T15:22:27.261Z,4.90
2019-01-25T15:24:59.018Z,4.90
2019-01-25T15:27:30.692Z,4.90
2019-01-25T15:30:04.100Z,4.90
2019-01-25T15:32:35.942Z,4.90
2019-01-25T15:35:09.145Z,4.90
2019-01-25T15:37:40.800Z,4.80
2019-01-25T15:40:13.395Z,4.80
2019-01-25T15:42:45.128Z,4.80
2019-01-25T15:45:17.733Z,4.80
2019-01-25T15:47:49.398Z,4.80
2019-01-25T15:50:23.391Z,4.80
2019-01-25T15:52:55.079Z,4.80
2019-01-25T15:55:27.225Z,4.80
2019-01-25T15:57:58.974Z,4.80
2019-01-25T16:00:31.257Z,4.80
2019-01-25T16:03:02.956Z,4.70
2019-01-25T16:05:34.619Z,4.70
2019-01-25T16:08:06.277Z,4.70
2019-01-25T16:10:37.963Z,4.70
2019-01-25T16:13:09.627Z,4.70
2019-01-25T16:15:41.398Z,4.60
2019-01-25T16:18:13.053Z,4.60
2019-01-25T16:20:45.153Z,4.60
2019-01-25T16:23:16.847Z,4.60
2019-01-25T16:25:48.635Z,4.60
2019-01-25T16:28:20.319Z,4.60
2019-01-25T16:30:52.005Z,4.60
2019-01-25T16:33:23.683Z,4.60
2019-01-25T16:35:55.458Z,4.60
2019-01-25T16:38:27.167Z,4.60
2019-01-25T16:40:58.847Z,4.70
2019-01-25T16:43:30.552Z,4.70
2019-01-25T16:46:03.683Z,4.70
2019-01-25T16:48:35.541Z,4.70
2019-01-25T16:51:07.210Z,4.70
2019-01-25T16:53:38.879Z,4.70
2019-01-25T16:56:10.622Z,4.80
2019-01-25T16:58:42.298Z,4.80
2019-01-25T17:01:14.060Z,4.80
2019-01-25T17:03:45.856Z,4.80
2019-01-25T17:06:17.681Z,4.80
2019-01-25T17:08:49.347Z,4.80
2019-01-25T17:11:21.096Z,4.80
2019-01-25T17:13:53.792Z,4.90
2019-01-25T17:16:25.500Z,4.90
2019-01-25T17:18:57.148Z,4.90
2019-01-25T17:21:28.840Z,4.90
2019-01-25T17:24:00.601Z,4.90
2019-01-25T17:26:32.278Z,4.90
2019-01-25T17:29:04.459Z,4.90
2019-01-25T17:31:36.170Z,4.90
2019-01-25T17:34:08.290Z,4.90
2019-01-25T17:36:39.997Z,4.90
2019-01-25T17:39:17.700Z,4.90
2019-01-25T17:41:49.467Z,4.90
2019-01-25T17:44:21.251Z,5.00
2019-01-25T17:46:52.955Z,5.00
2019-01-25T17:49:26.276Z,5.00
2019-01-25T17:51:58.050Z,5.00
2019-01-25T17:54:29.809Z,5.00
2019-01-25T17:57:01.575Z,5.00
2019-01-25T17:59:34.609Z,5.00
2019-01-25T18:02:06.359Z,5.10
2019-01-25T18:04:38.095Z,5.10
2019-01-25T18:07:09.764Z,5.10
2019-01-25T18:09:41.418Z,5.10
2019-01-25T18:12:13.217Z,5.10
2019-01-25T18:14:49.148Z,5.20
2019-01-25T18:17:18.348Z,5.20
2019-01-25T18:19:50.010Z,5.20
2019-01-25T18:22:21.734Z,5.20
2019-01-25T18:24:53.681Z,5.20
2019-01-25T18:27:25.535Z,5.20
2019-01-25T18:29:59.404Z,5.20
2019-01-25T18:32:31.232Z,5.30
2019-01-25T18:35:02.964Z,5.30
2019-01-25T18:37:34.678Z,5.30
2019-01-25T18:40:07.906Z,5.40
2019-01-25T18:42:39.707Z,5.40
2019-01-25T18:45:11.585Z,5.40
2019-01-25T18:47:43.313Z,5.40
2019-01-25T18:50:15.819Z,5.50
2019-01-25T18:52:47.635Z,5.50
2019-01-25T18:55:20.814Z,5.50
2019-01-25T18:57:52.586Z,5.60
2019-01-25T19:00:25.954Z,5.60
2019-01-25T19:02:57.642Z,5.60
2019-01-25T19:05:29.697Z,5.60
2019-01-25T19:08:01.401Z,5.60
2019-01-25T19:10:33.182Z,5.60
2019-01-25T19:13:05.066Z,5.70
2019-01-25T19:15:36.927Z,5.70
2019-01-25T19:18:08.650Z,5.70
2019-01-25T19:20:40.452Z,5.80
2019-01-25T19:23:12.122Z,5.80
2019-01-25T19:25:43.789Z,5.80
2019-01-25T19:28:15.455Z,5.80
2019-01-25T19:30:48.029Z,5.80
2019-01-25T19:33:19.769Z,5.90
2019-01-25T19:35:51.478Z,5.90
2019-01-25T19:38:23.565Z,5.90
2019-01-25T19:40:55.301Z,5.90
2019-01-25T19:43:27.051Z,6.00
2019-01-25T19:45:58.715Z,6.00
2019-01-25T19:48:30.421Z,6.10
2019-01-25T19:51:02.111Z,6.10
2019-01-25T19:53:33.850Z,6.10
2019-01-25T19:56:06.171Z,6.20
2019-01-25T19:58:37.879Z,6.10
2019-01-25T20:01:09.564Z,6.10
2019-01-25T20:03:41.587Z,6.20
2019-01-25T20:06:13.275Z,6.20
2019-01-25T20:08:45.110Z,6.20
2019-01-25T20:11:16.826Z,6.20
2019-01-25T20:13:48.620Z,6.20
2019-01-25T20:16:20.314Z,6.20
2019-01-25T20:18:52.016Z,6.20
2019-01-25T20:21:23.805Z,6.20
2019-01-25T20:23:55.568Z,6.20
2019-01-25T20:26:27.274Z,6.20
2019-01-25T20:28:59.014Z,6.20
2019-01-25T20:31:30.716Z,6.30
2019-01-25T20:34:02.490Z,6.30
2019-01-25T20:36:34.154Z,6.30
2019-01-25T20:39:08.420Z,6.40
2019-01-25T20:41:40.154Z,6.40
2019-01-25T20:44:11.928Z,6.40
2019-01-25T20:46:43.636Z,6.50
2019-01-25T20:49:15.334Z,6.50
2019-01-25T20:51:47.341Z,6.50
2019-01-25T20:54:19.086Z,6.50
2019-01-25T20:56:50.780Z,6.50
2019-01-25T20:59:22.471Z,6.50
2019-01-25T21:01:54.193Z,6.60
2019-01-25T21:04:25.908Z,6.50
2019-01-25T21:06:57.619Z,6.60
2019-01-25T21:09:29.323Z,6.70
2019-01-25T21:12:01.021Z,6.70
2019-01-25T21:14:32.723Z,6.70
2019-01-25T21:17:04.404Z,6.70
2019-01-25T21:19:36.077Z,6.70
2019-01-25T21:22:07.741Z,6.70
2019-01-25T21:24:39.501Z,6.70
2019-01-25T21:27:11.214Z,6.70
2019-01-25T21:29:42.915Z,6.70
2019-01-25T21:32:14.631Z,6.60
2019-01-25T21:34:46.424Z,6.70
2019-01-25T21:37:18.094Z,6.70
2019-01-25T21:39:50.155Z,6.60
2019-01-25T21:42:21.880Z,6.70
2019-01-25T21:44:53.663Z,6.70
2019-01-25T21:47:25.404Z,6.70
2019-01-25T21:49:57.229Z,6.70
2019-01-25T21:52:29.225Z,6.70
2019-01-25T21:55:00.999Z,6.70
2019-01-25T21:57:32.959Z,6.70
2019-01-25T22:00:08.167Z,6.70
2019-01-25T22:02:39.816Z,6.70
2019-01-25T22:05:11.494Z,6.70
2019-01-25T22:07:43.170Z,6.70
2019-01-25T22:10:20.824Z,6.70
2019-01-25T22:12:52.605Z,6.80
2019-01-25T22:15:24.285Z,6.80
2019-01-25T22:17:55.963Z,6.80
2019-01-25T22:20:28.985Z,6.90
2019-01-25T22:23:00.662Z,6.80
2019-01-25T22:25:32.545Z,6.90
2019-01-25T22:28:04.220Z,6.90
2019-01-25T22:30:36.093Z,6.80
2019-01-25T22:33:07.773Z,6.90
2019-01-25T22:35:39.450Z,6.90
2019-01-25T22:38:11.141Z,6.90
2019-01-25T22:40:42.798Z,6.90
2019-01-25T22:43:14.467Z,6.90
2019-01-25T22:45:46.214Z,6.90
2019-01-25T22:48:17.884Z,6.90
2019-01-25T22:50:49.565Z,6.90
2019-01-25T22:53:21.215Z,7.00
2019-01-25T22:55:52.887Z,6.90
2019-01-25T22:58:24.564Z,6.90
2019-01-25T23:01:15.263Z,6.90
2019-01-25T23:04:23.825Z,6.90
2019-01-25T23:07:06.601Z,6.80
2019-01-25T23:09:45.317Z,6.90
2019-01-25T23:12:17.015Z,6.90
2019-01-25T23:14:49.304Z,6.90
2019-01-25T23:17:21.572Z,6.90
2019-01-25T23:19:53.260Z,6.90
2019-01-25T23:22:24.940Z,6.90
2019-01-25T23:24:56.641Z,6.90
2019-01-25T23:27:28.355Z,6.90
2019-01-25T23:30:00.131Z,6.90
2019-01-25T23:32:31.957Z,6.90
2019-01-25T23:35:03.717Z,6.90
2019-01-25T23:37:35.505Z,6.90
2019-01-25T23:40:10.566Z,6.90
2019-01-25T23:42:42.325Z,6.80
2019-01-25T23:45:14.160Z,6.80
2019-01-25T23:47:45.811Z,6.80
2019-01-25T23:50:17.470Z,6.70
2019-01-25T23:52:49.144Z,6.70
2019-01-25T23:55:20.899Z,6.70
2019-01-25T23:57:52.607Z,6.80
